createdAt,value
2023-05-24T00:00:48.482Z,5.97
2023-05-24T00:03:15.680Z,5.60
2023-05-24T00:05:43.659Z,6.37
2023-05-24T00:08:11.059Z,5.97
2023-05-24T00:10:38.625Z,6.60
2023-05-24T00:13:06.483Z,6.23
2023-05-24T00:15:33.923Z,6.53
2023-05-24T00:18:01.355Z,7.17
2023-05-24T00:20:28.946Z,8.17
2023-05-24T00:22:56.138Z,7.03
2023-05-24T00:25:23.154Z,6.03
2023-05-24T00:27:50.729Z,6.53
2023-05-24T00:30:18.415Z,7.53
2023-05-24T00:32:45.501Z,6.50
2023-05-24T00:35:12.822Z,6.87
2023-05-24T00:37:42.337Z,8.70
2023-05-24T00:40:10.161Z,6.93
2023-05-24T00:42:37.300Z,6.63
2023-05-24T00:45:04.832Z,7.27
2023-05-24T00:47:32.019Z,6.63
2023-05-24T00:50:00.277Z,6.80
2023-05-24T00:52:27.769Z,6.47
2023-05-24T00:54:56.052Z,6.37
2023-05-24T00:57:23.996Z,7.17
2023-05-24T00:59:52.529Z,6.63
2023-05-24T01:02:21.318Z,7.87
2023-05-24T01:04:49.193Z,7.63
2023-05-24T01:07:26.938Z,9.87
2023-05-24T01:10:25.526Z,7.73
2023-05-24T01:13:24.530Z,6.23
2023-05-24T01:16:00.701Z,9.97
2023-05-24T01:18:36.818Z,5.67
2023-05-24T01:21:25.830Z,7.87
2023-05-24T01:24:14.374Z,8.23
2023-05-24T01:27:07.845Z,8.27
2023-05-24T01:29:36.831Z,8.20
2023-05-24T01:32:05.193Z,7.43
2023-05-24T01:34:32.215Z,7.00
2023-05-24T01:36:59.306Z,10.17
2023-05-24T01:39:29.548Z,7.50
2023-05-24T01:42:13.428Z,7.23
2023-05-24T01:44:54.197Z,9.50
2023-05-24T01:47:35.690Z,7.43
2023-05-24T01:50:20.496Z,7.77
2023-05-24T01:52:51.939Z,9.27
2023-05-24T01:55:19.792Z,7.50
2023-05-24T01:57:50.999Z,6.67
2023-05-24T02:00:19.980Z,7.90
2023-05-24T02:02:47.462Z,10.27
2023-05-24T02:05:16.282Z,9.70
2023-05-24T02:07:43.265Z,8.73
2023-05-24T02:10:10.654Z,9.20
2023-05-24T02:12:37.926Z,8.97
2023-05-24T02:15:07.312Z,8.87
2023-05-24T02:17:35.847Z,8.60
2023-05-24T02:20:04.326Z,10.03
2023-05-24T02:22:31.805Z,9.37
2023-05-24T02:24:58.930Z,8.73
2023-05-24T02:27:26.115Z,8.70
2023-05-24T02:29:57.616Z,8.00
2023-05-24T02:32:26.110Z,9.87
2023-05-24T02:34:53.889Z,12.07
2023-05-24T02:37:21.168Z,9.83
2023-05-24T02:39:48.530Z,9.33
2023-05-24T02:42:16.521Z,11.87
2023-05-24T02:44:43.811Z,10.00
2023-05-24T02:47:10.987Z,7.50
2023-05-24T02:49:37.975Z,10.70
2023-05-24T02:52:05.360Z,11.37
2023-05-24T02:54:32.530Z,8.60
2023-05-24T02:57:02.027Z,9.50
2023-05-24T02:59:29.954Z,9.77
2023-05-24T03:01:57.720Z,9.63
2023-05-24T03:04:26.251Z,7.70
2023-05-24T03:06:54.825Z,11.00
2023-05-24T03:09:23.104Z,10.17
2023-05-24T03:11:52.919Z,11.93
2023-05-24T03:14:22.965Z,12.33
2023-05-24T03:16:51.780Z,10.43
2023-05-24T03:19:19.390Z,7.63
2023-05-24T03:21:48.452Z,10.17
2023-05-24T03:24:16.011Z,8.50
2023-05-24T03:26:43.420Z,9.00
2023-05-24T03:29:12.125Z,10.13
2023-05-24T03:31:42.668Z,9.63
2023-05-24T03:34:09.801Z,13.60
2023-05-24T03:36:38.859Z,7.97
2023-05-24T03:39:06.566Z,12.50
2023-05-24T03:41:47.936Z,7.70
2023-05-24T03:44:16.009Z,8.60
2023-05-24T03:46:45.171Z,10.23
2023-05-24T03:49:12.728Z,9.10
2023-05-24T03:51:39.975Z,9.30
2023-05-24T03:54:10.953Z,11.90
2023-05-24T03:56:41.112Z,9.97
2023-05-24T03:59:12.416Z,13.47
2023-05-24T04:01:40.166Z,10.07
2023-05-24T04:04:07.817Z,9.97
2023-05-24T04:06:38.990Z,8.63
2023-05-24T04:09:06.891Z,9.67
2023-05-24T04:11:34.532Z,8.90
2023-05-24T04:14:01.542Z,9.70
2023-05-24T04:16:31.986Z,11.13
2023-05-24T04:19:01.480Z,7.60
2023-05-24T04:21:29.430Z,8.97
2023-05-24T04:23:58.134Z,9.43
2023-05-24T04:26:29.235Z,13.83
2023-05-24T04:29:02.062Z,9.83
2023-05-24T04:31:34.592Z,11.23
2023-05-24T04:34:08.255Z,9.00
2023-05-24T04:36:36.024Z,9.30
2023-05-24T04:39:05.531Z,9.43
2023-05-24T04:41:35.613Z,11.27
2023-05-24T04:44:02.959Z,11.43
2023-05-24T04:46:34.292Z,8.33
2023-05-24T04:49:02.453Z,11.57
2023-05-24T04:51:30.232Z,11.30
2023-05-24T04:54:11.743Z,11.43
2023-05-24T04:56:40.337Z,12.10
2023-05-24T04:59:08.481Z,10.27
2023-05-24T05:01:39.581Z,12.03
2023-05-24T05:04:08.068Z,11.07
2023-05-24T05:06:39.020Z,10.43
2023-05-24T05:09:10.785Z,8.87
2023-05-24T05:11:38.672Z,8.40
2023-05-24T05:14:09.856Z,11.47
2023-05-24T05:16:37.809Z,10.63
2023-05-24T05:19:07.001Z,8.50
2023-05-24T05:21:35.006Z,11.13
2023-05-24T05:24:06.017Z,11.10
2023-05-24T05:26:33.069Z,11.50
2023-05-24T05:28:59.987Z,9.47
2023-05-24T05:31:27.799Z,9.23
2023-05-24T05:33:54.914Z,11.10
2023-05-24T05:36:22.332Z,9.67
2023-05-24T05:38:49.936Z,11.27
2023-05-24T05:41:18.023Z,9.63
2023-05-24T05:43:49.021Z,9.83
2023-05-24T05:46:16.478Z,11.20
2023-05-24T05:48:46.704Z,10.03
2023-05-24T05:51:14.687Z,12.37
2023-05-24T05:53:42.381Z,10.17
2023-05-24T05:56:09.906Z,11.30
2023-05-24T05:58:39.229Z,10.10
2023-05-24T06:01:08.437Z,10.40
2023-05-24T06:03:36.374Z,10.87
2023-05-24T06:06:03.758Z,12.00
2023-05-24T06:08:36.904Z,7.30
2023-05-24T06:11:04.033Z,9.27
2023-05-24T06:13:33.342Z,11.80
2023-05-24T06:16:04.100Z,11.10
2023-05-24T06:18:32.861Z,11.53
2023-05-24T06:21:00.244Z,7.87
2023-05-24T06:23:27.493Z,13.20
2023-05-24T06:25:54.733Z,13.20
2023-05-24T06:28:23.183Z,9.57
2023-05-24T06:30:50.698Z,10.97
2023-05-24T06:33:18.084Z,14.43
2023-05-24T06:35:46.440Z,10.47
2023-05-24T06:38:13.738Z,11.90
2023-05-24T06:40:41.862Z,11.50
2023-05-24T06:43:09.085Z,9.83
2023-05-24T06:45:36.600Z,11.13
2023-05-24T06:48:05.079Z,9.53
2023-05-24T06:50:32.641Z,8.50
2023-05-24T06:53:01.299Z,9.90
2023-05-24T06:55:29.958Z,10.90
2023-05-24T06:57:58.433Z,21.97
2023-05-24T07:00:27.596Z,12.43
2023-05-24T07:02:55.572Z,13.20
2023-05-24T07:05:25.369Z,10.97
2023-05-24T07:07:53.188Z,10.27
2023-05-24T07:10:20.946Z,9.83
2023-05-24T07:12:48.059Z,9.37
2023-05-24T07:15:15.082Z,9.73
2023-05-24T07:17:42.634Z,12.20
2023-05-24T07:20:11.202Z,19.37
2023-05-24T07:22:38.360Z,12.07
2023-05-24T07:25:10.752Z,11.93
2023-05-24T07:27:38.499Z,10.90
2023-05-24T07:30:16.375Z,9.83
2023-05-24T07:32:52.746Z,11.20
2023-05-24T07:35:31.961Z,13.13
2023-05-24T07:38:00.590Z,11.23
2023-05-24T07:40:28.314Z,11.00
2023-05-24T07:42:57.135Z,13.33
2023-05-24T07:45:24.587Z,15.07
2023-05-24T07:47:54.386Z,9.87
2023-05-24T07:50:23.312Z,14.70
2023-05-24T07:52:51.814Z,11.47
2023-05-24T07:55:21.821Z,12.23
2023-05-24T07:57:49.567Z,11.83
2023-05-24T08:00:17.609Z,11.03
2023-05-24T08:02:46.625Z,12.63
2023-05-24T08:05:14.433Z,10.87
2023-05-24T08:07:42.161Z,14.60
2023-05-24T08:10:15.212Z,10.77
2023-05-24T08:12:43.707Z,8.87
2023-05-24T08:15:11.277Z,10.60
2023-05-24T08:17:40.727Z,11.37
2023-05-24T08:20:14.930Z,13.47
2023-05-24T08:22:43.180Z,9.63
2023-05-24T08:25:11.828Z,12.07
2023-05-24T08:27:39.436Z,9.17
2023-05-24T08:30:08.582Z,10.70
2023-05-24T08:32:36.410Z,13.60
2023-05-24T08:35:19.499Z,14.87
2023-05-24T08:37:48.298Z,8.93
2023-05-24T08:40:15.830Z,13.30
2023-05-24T08:42:43.230Z,8.47
2023-05-24T08:45:15.258Z,8.50
2023-05-24T08:47:43.080Z,11.27
2023-05-24T08:50:14.766Z,11.80
2023-05-24T08:52:42.949Z,9.83
2023-05-24T08:55:11.688Z,10.90
2023-05-24T08:57:41.675Z,9.90
2023-05-24T09:00:11.905Z,9.23
2023-05-24T09:02:41.287Z,15.43
2023-05-24T09:05:14.644Z,11.40
2023-05-24T09:07:45.193Z,11.57
2023-05-24T09:10:12.768Z,11.73
2023-05-24T09:12:44.103Z,11.30
2023-05-24T09:15:11.969Z,12.90
2023-05-24T09:17:40.754Z,11.73
2023-05-24T09:20:11.430Z,12.93
2023-05-24T09:22:42.257Z,10.07
2023-05-24T09:25:11.617Z,7.97
2023-05-24T09:27:39.393Z,9.77
2023-05-24T09:30:12.946Z,12.40
2023-05-24T09:32:40.128Z,10.90
2023-05-24T09:35:10.921Z,9.20
2023-05-24T09:37:40.572Z,10.37
2023-05-24T09:40:19.066Z,12.10
2023-05-24T09:42:46.601Z,10.93
2023-05-24T09:45:14.079Z,12.87
2023-05-24T09:47:42.685Z,9.90
2023-05-24T09:50:15.031Z,10.03
2023-05-24T09:52:42.710Z,12.03
2023-05-24T09:55:20.415Z,11.57
2023-05-24T09:58:05.029Z,10.93
2023-05-24T10:00:40.343Z,11.83
2023-05-24T10:03:11.129Z,12.27
2023-05-24T10:05:42.882Z,10.30
2023-05-24T10:08:10.437Z,10.83
2023-05-24T10:10:38.006Z,10.90
2023-05-24T10:13:05.041Z,10.83
2023-05-24T10:15:32.071Z,11.83
2023-05-24T10:18:01.889Z,14.77
2023-05-24T10:20:30.254Z,13.60
2023-05-24T10:23:01.997Z,10.90
2023-05-24T10:25:30.112Z,8.73
2023-05-24T10:28:10.711Z,14.23
2023-05-24T10:30:48.912Z,14.97
2023-05-24T10:33:18.494Z,13.67
2023-05-24T10:35:46.623Z,16.57
2023-05-24T10:38:14.358Z,12.77
2023-05-24T10:40:45.364Z,9.17
2023-05-24T10:43:12.933Z,12.77
2023-05-24T10:45:40.836Z,12.83
2023-05-24T10:48:17.468Z,13.97
2023-05-24T10:50:45.095Z,12.83
2023-05-24T10:53:16.995Z,15.33
2023-05-24T10:55:58.885Z,9.93
2023-05-24T10:58:45.034Z,13.07
2023-05-24T11:01:29.312Z,10.77
2023-05-24T11:04:17.318Z,11.63
2023-05-24T11:07:01.823Z,11.57
2023-05-24T11:09:29.928Z,14.10
2023-05-24T11:12:09.629Z,9.27
2023-05-24T11:14:42.516Z,12.00
2023-05-24T11:17:10.734Z,14.37
2023-05-24T11:19:45.471Z,13.63
2023-05-24T11:22:15.234Z,12.60
2023-05-24T11:24:42.945Z,8.77
2023-05-24T11:27:13.126Z,10.67
2023-05-24T11:29:47.745Z,10.20
2023-05-24T11:32:23.798Z,8.60
2023-05-24T11:34:51.807Z,12.77
2023-05-24T11:37:19.548Z,10.50
2023-05-24T11:39:52.551Z,10.40
2023-05-24T11:42:21.995Z,10.47
2023-05-24T11:44:50.711Z,11.17
2023-05-24T11:47:22.075Z,14.57
2023-05-24T11:49:52.759Z,11.37
2023-05-24T11:52:20.315Z,9.07
2023-05-24T11:54:47.649Z,9.53
2023-05-24T11:57:15.965Z,10.43
2023-05-24T11:59:43.121Z,11.77
2023-05-24T12:02:10.513Z,9.50
2023-05-24T12:04:38.103Z,12.37
2023-05-24T12:07:10.910Z,11.27
2023-05-24T12:09:38.681Z,12.90
2023-05-24T12:12:07.541Z,13.37
2023-05-24T12:14:35.962Z,16.97
2023-05-24T12:17:03.191Z,11.77
2023-05-24T12:19:34.513Z,10.00
2023-05-24T12:22:06.045Z,11.77
2023-05-24T12:24:33.949Z,10.70
2023-05-24T12:27:08.106Z,10.37
2023-05-24T12:29:41.301Z,11.93
2023-05-24T12:32:15.482Z,10.70
2023-05-24T12:34:44.054Z,10.83
2023-05-24T12:37:13.031Z,10.80
2023-05-24T12:39:42.801Z,9.60
2023-05-24T12:42:12.486Z,10.57
2023-05-24T12:44:40.589Z,8.20
2023-05-24T12:47:09.085Z,15.37
2023-05-24T12:49:36.755Z,12.03
2023-05-24T12:52:03.931Z,8.43
2023-05-24T12:54:31.375Z,8.30
2023-05-24T12:57:03.277Z,9.87
2023-05-24T12:59:31.479Z,10.87
2023-05-24T13:01:58.796Z,10.87
2023-05-24T13:04:27.823Z,10.67
2023-05-24T13:06:56.316Z,9.33
2023-05-24T13:09:24.398Z,13.73
2023-05-24T13:11:52.541Z,8.77
2023-05-24T13:14:20.576Z,7.97
2023-05-24T13:16:48.502Z,12.03
2023-05-24T13:19:17.413Z,10.33
2023-05-24T13:21:45.010Z,8.73
2023-05-24T13:24:17.111Z,13.37
2023-05-24T13:26:51.709Z,10.27
2023-05-24T13:32:02.035Z,13.87
2023-05-24T13:34:30.342Z,8.27
2023-05-24T13:37:00.465Z,8.27
2023-05-24T13:39:28.646Z,12.13
2023-05-24T13:41:57.929Z,11.97
2023-05-24T13:44:28.218Z,10.17
2023-05-24T13:46:56.806Z,7.07
2023-05-24T13:49:24.394Z,25.50
2023-05-24T13:51:56.380Z,22.17
2023-05-24T13:54:26.373Z,74.60
2023-05-24T13:56:57.253Z,64.10
2023-05-24T13:59:24.723Z,21.63
2023-05-24T14:01:51.975Z,14.80
2023-05-24T14:04:19.914Z,14.03
2023-05-24T14:06:46.912Z,9.67
2023-05-24T14:09:14.422Z,9.80
2023-05-24T14:11:41.564Z,9.10
2023-05-24T14:14:57.817Z,8.97
2023-05-24T14:16:56.124Z,9.83
2023-05-24T14:19:23.228Z,11.43
2023-05-24T14:21:50.137Z,8.67
2023-05-24T14:24:17.178Z,8.40
2023-05-24T14:26:44.138Z,9.50
2023-05-24T14:29:11.330Z,8.77
2023-05-24T14:31:42.343Z,9.97
2023-05-24T14:34:11.128Z,11.00
2023-05-24T14:36:38.897Z,8.63
2023-05-24T14:39:09.204Z,8.83
2023-05-24T14:41:36.065Z,10.73
2023-05-24T14:44:03.710Z,10.70
2023-05-24T14:46:30.705Z,10.03
2023-05-24T14:48:57.705Z,9.50
2023-05-24T14:51:24.998Z,9.80
2023-05-24T14:53:51.871Z,8.27
2023-05-24T14:56:18.808Z,6.57
2023-05-24T14:58:45.659Z,7.33
2023-05-24T15:01:12.697Z,8.13
2023-05-24T15:03:39.820Z,8.63
2023-05-24T15:06:07.073Z,7.73
2023-05-24T15:08:34.978Z,6.43
2023-05-24T15:11:02.067Z,5.93
2023-05-24T15:13:29.075Z,6.03
2023-05-24T15:15:57.691Z,6.37
2023-05-24T15:18:25.760Z,5.87
2023-05-24T15:20:52.754Z,4.50
2023-05-24T15:23:21.420Z,3.87
2023-05-24T15:25:48.788Z,4.40
2023-05-24T15:28:17.243Z,4.17
2023-05-24T15:30:47.252Z,3.90
2023-05-24T15:33:14.572Z,6.53
2023-05-24T15:35:41.596Z,4.20
2023-05-24T15:38:08.529Z,4.60
2023-05-24T15:40:35.653Z,6.47
2023-05-24T15:43:02.568Z,5.80
2023-05-24T15:45:29.481Z,4.77
2023-05-24T15:47:56.555Z,6.77
2023-05-24T15:50:35.342Z,6.30
2023-05-24T15:53:11.213Z,4.80
2023-05-24T15:55:39.087Z,9.27
2023-05-24T15:58:06.219Z,4.50
2023-05-24T16:00:33.224Z,4.03
2023-05-24T16:03:00.271Z,8.57
2023-05-24T16:05:28.356Z,6.03
2023-05-24T16:07:55.483Z,6.27
2023-05-24T16:10:22.452Z,4.77
2023-05-24T16:12:49.335Z,5.60
2023-05-24T16:15:16.357Z,8.10
2023-05-24T16:17:44.826Z,8.40
2023-05-24T16:20:11.775Z,7.80
2023-05-24T16:22:48.871Z,7.43
2023-05-24T16:25:16.396Z,11.13
2023-05-24T16:27:43.298Z,5.80
2023-05-24T16:30:10.529Z,5.77
2023-05-24T16:32:38.890Z,8.07
2023-05-24T16:35:07.346Z,6.67
2023-05-24T16:37:34.896Z,6.47
2023-05-24T16:40:01.832Z,8.43
2023-05-24T16:42:28.768Z,7.00
2023-05-24T16:44:55.962Z,7.77
2023-05-24T16:47:23.225Z,7.40
2023-05-24T16:49:50.185Z,6.23
2023-05-24T16:52:17.109Z,8.13
2023-05-24T16:54:44.040Z,5.37
2023-05-24T16:57:10.995Z,6.73
2023-05-24T16:59:39.007Z,6.17
2023-05-24T17:02:06.209Z,14.07
2023-05-24T17:04:33.117Z,6.57
2023-05-24T17:07:00.060Z,9.77
2023-05-24T17:09:27.002Z,5.17
2023-05-24T17:11:53.856Z,7.03
2023-05-24T17:14:20.741Z,7.23
2023-05-24T17:16:47.582Z,9.97
2023-05-24T17:19:14.634Z,6.53
2023-05-24T17:21:42.161Z,8.13
2023-05-24T17:24:09.095Z,6.27
2023-05-24T17:26:35.983Z,7.13
2023-05-24T17:29:02.864Z,5.50
2023-05-24T17:31:29.839Z,5.57
2023-05-24T17:33:57.644Z,7.00
2023-05-24T17:36:24.633Z,6.77
2023-05-24T17:38:51.596Z,6.80
2023-05-24T17:41:18.507Z,5.40
2023-05-24T17:43:45.692Z,6.50
2023-05-24T17:46:13.593Z,4.47
2023-05-24T17:48:41.370Z,4.17
2023-05-24T17:51:09.480Z,7.83
2023-05-24T17:53:43.221Z,6.67
2023-05-24T17:56:10.232Z,6.63
2023-05-24T17:58:37.649Z,3.87
2023-05-24T18:01:10.916Z,4.73
2023-05-24T18:03:39.110Z,4.60
2023-05-24T18:06:07.396Z,4.87
2023-05-24T18:08:37.977Z,5.87
2023-05-24T18:11:08.483Z,9.63
2023-05-24T18:13:37.579Z,9.97
2023-05-24T18:16:04.827Z,8.00
2023-05-24T18:18:32.884Z,6.33
2023-05-24T18:20:59.880Z,5.53
2023-05-24T18:23:26.956Z,7.67
2023-05-24T18:26:01.419Z,6.60
2023-05-24T18:28:29.291Z,5.73
2023-05-24T18:30:56.392Z,4.20
2023-05-24T18:33:23.594Z,4.83
2023-05-24T18:35:50.653Z,4.37
2023-05-24T18:38:17.615Z,4.70
2023-05-24T18:40:44.456Z,5.33
2023-05-24T18:43:11.506Z,5.73
2023-05-24T18:45:38.601Z,8.00
2023-05-24T18:48:06.207Z,6.10
2023-05-24T18:50:33.274Z,5.40
2023-05-24T18:53:00.309Z,4.83
2023-05-24T18:55:28.005Z,5.50
2023-05-24T18:57:54.944Z,6.60
2023-05-24T19:00:22.868Z,6.47
2023-05-24T19:02:50.340Z,6.37
2023-05-24T19:05:17.337Z,6.57
2023-05-24T19:07:44.324Z,6.63
2023-05-24T19:10:12.031Z,5.83
2023-05-24T19:12:39.258Z,5.33
2023-05-24T19:15:06.838Z,4.90
2023-05-24T19:17:33.940Z,6.17
2023-05-24T19:20:02.187Z,4.37
2023-05-24T19:22:29.566Z,5.63
2023-05-24T19:24:57.233Z,7.33
2023-05-24T19:27:24.818Z,5.63
2023-05-24T19:29:51.817Z,7.47
2023-05-24T19:32:20.426Z,6.33
2023-05-24T19:34:47.555Z,5.80
2023-05-24T19:37:15.837Z,6.50
2023-05-24T19:39:42.864Z,5.97
2023-05-24T19:42:10.962Z,7.53
2023-05-24T19:44:38.050Z,5.97
2023-05-24T19:47:05.421Z,5.37
2023-05-24T19:49:32.676Z,4.93
2023-05-24T19:51:59.492Z,5.43
2023-05-24T19:54:26.556Z,6.50
2023-05-24T19:56:55.225Z,6.93
2023-05-24T19:59:22.112Z,6.97
2023-05-24T20:01:49.199Z,6.03
2023-05-24T20:04:16.328Z,4.97
2023-05-24T20:06:43.339Z,5.17
2023-05-24T20:09:10.289Z,7.03
2023-05-24T20:11:37.475Z,7.40
2023-05-24T20:14:04.456Z,7.33
2023-05-24T20:16:31.494Z,8.70
2023-05-24T20:18:58.561Z,6.20
2023-05-24T20:21:25.623Z,5.67
2023-05-24T20:23:58.973Z,6.13
2023-05-24T20:26:26.439Z,7.90
2023-05-24T20:28:53.654Z,8.37
2023-05-24T20:31:20.708Z,7.20
2023-05-24T20:33:48.980Z,6.67
2023-05-24T20:36:16.088Z,5.63
2023-05-24T20:38:43.106Z,5.47
2023-05-24T20:41:09.964Z,8.63
2023-05-24T20:43:36.860Z,15.10
2023-05-24T20:46:03.977Z,7.77
2023-05-24T20:48:31.125Z,7.07
2023-05-24T20:50:58.437Z,6.57
2023-05-24T20:53:25.514Z,7.87
2023-05-24T20:55:52.367Z,13.77
2023-05-24T20:58:19.247Z,6.17
2023-05-24T21:00:46.452Z,7.43
2023-05-24T21:03:13.698Z,8.13
2023-05-24T21:05:41.005Z,7.87
2023-05-24T21:08:07.931Z,7.73
2023-05-24T21:10:36.123Z,8.83
2023-05-24T21:13:03.786Z,5.83
2023-05-24T21:15:31.778Z,12.10
2023-05-24T21:17:58.928Z,6.23
2023-05-24T21:20:26.200Z,9.30
2023-05-24T21:22:53.234Z,9.50
2023-05-24T21:25:20.791Z,9.47
2023-05-24T21:27:48.006Z,9.93
2023-05-24T21:30:15.524Z,11.27
2023-05-24T21:32:42.530Z,8.60
2023-05-24T21:35:09.588Z,6.30
2023-05-24T21:37:36.473Z,6.27
2023-05-24T21:40:05.279Z,5.60
2023-05-24T21:42:32.332Z,7.87
2023-05-24T21:44:59.588Z,6.53
2023-05-24T21:47:26.695Z,7.10
2023-05-24T21:49:54.930Z,9.37
2023-05-24T21:52:22.072Z,6.70
2023-05-24T21:54:49.026Z,6.83
2023-05-24T21:57:15.891Z,8.60
2023-05-24T21:59:42.895Z,8.30
2023-05-24T22:02:09.974Z,10.30
2023-05-24T22:04:37.072Z,7.23
2023-05-24T22:07:04.194Z,6.27
2023-05-24T22:09:31.063Z,6.97
2023-05-24T22:11:58.096Z,8.90
2023-05-24T22:14:24.993Z,7.93
2023-05-24T22:16:51.885Z,6.30
2023-05-24T22:19:28.479Z,9.20
2023-05-24T22:21:59.678Z,10.27
2023-05-24T22:24:27.263Z,7.93
2023-05-24T22:26:55.912Z,9.40
2023-05-24T22:29:22.910Z,9.10
2023-05-24T22:31:49.806Z,8.10
2023-05-24T22:34:28.421Z,7.13
2023-05-24T22:36:57.219Z,9.57
2023-05-24T22:39:24.626Z,9.80
2023-05-24T22:41:54.660Z,7.73
2023-05-24T22:44:21.591Z,11.67
2023-05-24T22:46:54.665Z,7.63
2023-05-24T22:49:21.903Z,6.33
2023-05-24T22:51:50.689Z,10.10
2023-05-24T22:54:18.013Z,8.67
2023-05-24T22:56:46.184Z,8.67
2023-05-24T22:59:13.126Z,7.13
2023-05-24T23:01:40.115Z,6.70
2023-05-24T23:06:39.175Z,7.67
2023-05-24T23:09:06.612Z,12.67
2023-05-24T23:11:34.220Z,8.60
2023-05-24T23:14:01.828Z,7.83
2023-05-24T23:16:29.179Z,7.47
2023-05-24T23:18:56.444Z,7.63
2023-05-24T23:21:24.865Z,6.77
2023-05-24T23:23:52.874Z,11.13
2023-05-24T23:26:20.000Z,10.27
2023-05-24T23:28:47.061Z,9.53
2023-05-24T23:31:14.323Z,8.07
2023-05-24T23:33:41.328Z,8.93
2023-05-24T23:36:09.995Z,8.57
2023-05-24T23:38:37.404Z,7.20
2023-05-24T23:41:04.372Z,8.57
2023-05-24T23:43:31.201Z,8.13
2023-05-24T23:45:58.176Z,10.73
2023-05-24T23:48:24.999Z,8.17
2023-05-24T23:50:54.757Z,9.23
2023-05-24T23:53:22.008Z,8.40
2023-05-24T23:55:49.046Z,10.37
2023-05-24T23:58:16.036Z,9.23
